This is the latest recevied weather packets stored in our database for station/object AJ7DN. If no packets are shown the sender has not sent any weather packets the latest 10 day(s).
| Time | Temp. | Humidity | Pressure | Rain* | Wind** | Luminosity | Snow |
|---|---|---|---|---|---|---|---|
| 1777937651 | 23.89° C | 58% | 1015.8 hPa | 0 mm | - | 327 W/m² | - |
| 1777937348 | 23.89° C | 59% | 1015.5 hPa | 0 mm | - | 413 W/m² | - |
| 1777937045 | 23.89° C | 58% | 1015.5 hPa | 0 mm | - | 451 W/m² | - |
| 1777936742 | 24.44° C | 56% | 1015.5 hPa | 0 mm | - | 450 W/m² | - |
| 1777936438 | 23.89° C | 58% | 1015.6 hPa | 0 mm | - | 463 W/m² | - |
| 1777936134 | 23.89° C | 58% | 1015.7 hPa | 0 mm | - | 489 W/m² | - |
| 1777935832 | 23.89° C | 57% | 1015.7 hPa | 0 mm | - | 490 W/m² | - |
| 1777935530 | 23.33° C | 60% | 1015.8 hPa | 0 mm | - | 510 W/m² | - |
| 1777935226 | 23.89° C | 57% | 1015.9 hPa | 0 mm | - | 456 W/m² | - |
| 1777934924 | 23.89° C | 57% | 1015.8 hPa | 0 mm | - | 471 W/m² | - |
| 1777934621 | 23.33° C | 58% | 1016 hPa | 0 mm | - | 524 W/m² | - |
| 1777934317 | 22.78° C | 60% | 1015.8 hPa | 0 mm | - | 542 W/m² | - |
| 1777934013 | 22.78° C | 60% | 1016.1 hPa | 0 mm | - | 572 W/m² | - |
| 1777933710 | 23.33° C | 60% | 1015.9 hPa | 0 mm | - | 582 W/m² | - |
| 1777933407 | 23.33° C | 59% | 1016.1 hPa | 0 mm | - | 599 W/m² | - |
| 1777933105 | 22.78° C | 59% | 1016 hPa | 0 mm | - | 589 W/m² | - |
| 1777932801 | 23.33° C | 57% | 1016.2 hPa | 0 mm | - | 585 W/m² | - |
| 1777932499 | 22.78° C | 60% | 1016.3 hPa | 0 mm | - | 605 W/m² | - |
| 1777932195 | 22.78° C | 59% | 1016.4 hPa | 0 mm | - | 610 W/m² | - |
| 1777931893 | 22.78° C | 59% | 1016.4 hPa | 0 mm | - | 605 W/m² | - |
| 1777931589 | 23.33° C | 58% | 1016.4 hPa | 0 mm | - | 624 W/m² | - |
| 1777931285 | 22.78° C | 58% | 1016.3 hPa | 0 mm | - | 633 W/m² | - |
| 1777930982 | 22.78° C | 61% | 1016.4 hPa | 0 mm | - | 629 W/m² | - |
| 1777930678 | 22.78° C | 59% | 1016.5 hPa | 0 mm | - | 649 W/m² | - |
| 1777930375 | 22.78° C | 59% | 1016.8 hPa | 0 mm | - | 657 W/m² | - |
* Rain latest hour (hover to see other rain measurements)
** Current wind speed in m/s (hover to see current wind gust speed)